Time;durP1;ratioP1;P1;durP2;ratioP2;P2;SDS_P1;SDS_P2;PMS_P1;PMS_P2;Temp;Humidity;BMP_temperature;BMP_pressure;BME280_temperature;BME280_humidity;BME280_pressure;Samples;Min_cycle;Max_cycle;Signal;HPM_P1;HPM_P2
2023/02/25 00:02:08;;;;;;;;;;;;;;;25.51;37.16;93029.59;5036408;28;7145;-65
2023/02/25 00:04:50;;;;;;;;;;;;;;;25.53;37.44;93040.81;5016943;28;8613;-64
2023/02/25 00:07:34;;;;;;;;;;;;;;;25.55;37.80;93029.25;5035034;28;7868;-64
2023/02/25 00:10:12;;;;;;;;;;;;;;;25.53;37.47;93029.78;5034881;28;7331;-65
2023/02/25 00:12:42;;;;;;;;;;;;;;;25.50;37.78;93025.34;5042826;28;7205;-65
2023/02/25 00:15:24;;;;;;;;;;;;;;;25.53;37.24;93029.78;5043214;28;7484;-64
2023/02/25 00:18:00;;;;;;;;;;;;;;;25.51;36.90;93024.09;5040875;28;7681;-65
2023/02/25 00:20:56;;;;;;;;;;;;;;;25.52;37.93;93025.56;5032743;28;9312;-65
2023/02/25 00:23:55;;;;;;;;;;;;;;;25.51;37.63;93035.09;5045101;28;8617;-65
2023/02/25 00:26:31;;;;;;;;;;;;;;;25.51;37.62;93040.63;4976649;28;7117;-64
2023/02/25 00:29:27;;;;;;;;;;;;;;;25.52;37.36;93039.31;5000566;28;9030;-65
2023/02/25 00:31:53;;;;;;;;;;;;;;;25.51;37.23;93034.38;4996009;28;8750;-65
2023/02/25 00:34:35;;;;;;;;;;;;;;;25.51;37.63;93037.13;5012024;28;9050;-65
2023/02/25 00:37:02;;;;;;;;;;;;;;;25.51;37.24;93043.38;4993738;28;9451;-65
2023/02/25 00:39:48;;;;;;;;;;;;;;;25.51;37.47;93034.38;4978134;28;8146;-65
2023/02/25 00:42:17;;;;;;;;;;;;;;;25.51;37.67;93037.13;5011659;28;7662;-65
2023/02/25 00:44:56;;;;;;;;;;;;;;;25.50;37.14;93039.13;5008281;28;9075;-65
2023/02/25 00:47:38;;;;;;;;;;;;;;;25.47;37.36;93031.94;5002236;28;8250;-65
2023/02/25 00:50:10;;;;;;;;;;;;;;;25.49;37.74;93045.19;4994889;28;7202;-65
2023/02/25 00:52:39;;;;;;;;;;;;;;;25.49;37.87;93034.88;5011438;28;9020;-65
2023/02/25 00:55:05;;;;;;;;;;;;;;;25.48;37.52;93035.44;5011686;28;8994;-65
2023/02/25 00:57:33;;;;;;;;;;;;;;;25.48;37.85;93049.19;4991593;28;7144;-64
2023/02/25 01:00:08;;;;;;;;;;;;;;;25.47;37.06;93033.97;4982350;28;9034;-64
2023/02/25 01:02:35;;;;;;;;;;;;;;;25.47;37.76;93029.19;5055060;28;7847;-64
2023/02/25 01:05:07;;;;;;;;;;;;;;;25.47;37.73;93026.44;5056900;28;8765;-64
2023/02/25 01:07:34;;;;;;;;;;;;;;;25.46;37.19;93029.75;5073591;28;9468;-64
2023/02/25 01:10:00;;;;;;;;;;;;;;;25.47;37.11;93025.72;5072504;28;9136;-64
2023/02/25 01:12:29;;;;;;;;;;;;;;;25.46;37.28;93011.22;5072843;28;8927;-64
2023/02/25 01:14:56;;;;;;;;;;;;;;;25.47;37.21;93025.72;5071337;28;9036;-64
2023/02/25 01:17:22;;;;;;;;;;;;;;;25.47;37.04;93042.25;5069409;28;8753;-64
2023/02/25 01:19:48;;;;;;;;;;;;;;;25.47;37.87;93042.25;5070827;28;9080;-64
2023/02/25 01:22:17;;;;;;;;;;;;;;;25.47;37.07;93031.94;5071466;28;8019;-64
2023/02/25 01:24:45;;;;;;;;;;;;;;;25.47;37.93;93031.22;5089899;28;7111;-64
2023/02/25 01:27:13;;;;;;;;;;;;;;;25.46;37.14;93018.72;5062300;28;8941;-64
2023/02/25 01:29:41;;;;;;;;;;;;;;;25.47;37.52;93020.22;5081137;28;7275;-64
2023/02/25 01:32:57;;;;;;;;;;;;;;;25.48;37.59;93032.69;5056493;28;9561;-64
2023/02/25 01:35:23;;;;;;;;;;;;;;;25.47;37.47;93034.69;4996705;28;7208;-64
2023/02/25 01:37:55;;;;;;;;;;;;;;;25.49;36.94;93028.66;5005907;28;8662;-64
2023/02/25 01:40:41;;;;;;;;;;;;;;;25.48;37.55;93027.19;4998318;28;9306;-64
2023/02/25 01:43:24;;;;;;;;;;;;;;;25.46;37.77;93024.97;5006570;28;9046;-64
2023/02/25 01:45:53;;;;;;;;;;;;;;;25.46;37.42;93024.22;4995635;28;9059;-64
2023/02/25 01:48:26;;;;;;;;;;;;;;;25.48;37.49;93024.44;4991643;28;7242;-64
2023/02/25 01:51:35;;;;;;;;;;;;;;;25.48;36.87;93019.66;4991269;28;7344;-64
2023/02/25 01:54:26;;;;;;;;;;;;;;;25.48;37.91;93021.66;5001393;28;9250;-64
2023/02/25 01:56:55;;;;;;;;;;;;;;;25.46;37.73;93010.47;4984521;28;7291;-64
2023/02/25 01:59:54;;;;;;;;;;;;;;;25.48;36.84;93013.41;4966989;28;7342;-64
2023/02/25 02:02:32;;;;;;;;;;;;;;;25.48;37.83;93014.16;4985469;28;9408;-64
2023/02/25 02:05:07;;;;;;;;;;;;;;;25.47;37.15;93023.69;4999609;28;7113;-64
2023/02/25 02:07:49;;;;;;;;;;;;;;;25.47;37.99;93020.94;4984925;28;9380;-64
2023/02/25 02:10:18;;;;;;;;;;;;;;;25.49;37.54;93017.66;4984630;28;7362;-64
2023/02/25 02:12:50;;;;;;;;;;;;;;;25.49;37.71;93026.63;5056536;28;7036;-65
2023/02/25 02:15:42;;;;;;;;;;;;;;;25.50;37.01;93019.13;5087013;28;9074;-65
2023/02/25 02:18:47;;;;;;;;;;;;;;;25.49;36.95;93012.88;5059606;28;9350;-64
2023/02/25 02:21:32;;;;;;;;;;;;;;;25.48;37.34;93016.91;5066549;28;9001;-64
2023/02/25 02:28:06;;;;;;;;;;;;;;;25.48;37.99;93007.91;5031416;28;9366;-65
2023/02/25 02:30:54;;;;;;;;;;;;;;;25.48;36.97;93011.41;5014412;28;7343;-65
2023/02/25 02:33:53;;;;;;;;;;;;;;;25.47;37.53;93009.91;5020567;28;6852;-65
2023/02/25 02:36:43;;;;;;;;;;;;;;;25.47;37.73;93007.16;5011721;28;7632;-64
2023/02/25 02:39:23;;;;;;;;;;;;;;;25.49;37.56;93023.16;5026421;28;9380;-64
2023/02/25 02:42:04;;;;;;;;;;;;;;;25.50;37.87;93027.38;5014417;28;8609;-65
2023/02/25 02:45:26;;;;;;;;;;;;;;;25.50;37.80;93032.88;5020722;28;7305;-64
2023/02/25 02:48:12;;;;;;;;;;;;;;;25.49;37.59;93032.13;4956463;28;9089;-64
2023/02/25 02:51:07;;;;;;;;;;;;;;;25.50;36.86;93025.34;4948483;28;7190;-64
2023/02/25 02:54:00;;;;;;;;;;;;;;;25.50;37.78;93024.63;4939822;28;9028;-64
2023/02/25 02:56:31;;;;;;;;;;;;;;;25.50;37.24;93027.38;4945450;28;7056;-64
2023/02/25 02:59:00;;;;;;;;;;;;;;;25.51;36.97;93032.34;4949686;28;8947;-64
2023/02/25 03:01:34;;;;;;;;;;;;;;;25.52;37.88;93042.06;4950967;28;9043;-64
2023/02/25 03:04:12;;;;;;;;;;;;;;;25.52;36.99;93049.59;4961822;28;7035;-64
2023/02/25 03:06:46;;;;;;;;;;;;;;;25.51;37.55;93064.66;5007082;28;7530;-64
2023/02/25 03:09:21;;;;;;;;;;;;;;;25.50;37.45;93066.66;5010642;28;7263;-64
2023/02/25 03:11:57;;;;;;;;;;;;;;;25.51;37.53;93061.91;5013092;28;7394;-64
2023/02/25 03:14:59;;;;;;;;;;;;;;;25.52;37.89;93068.84;4995487;28;7258;-64
2023/02/25 03:17:30;;;;;;;;;;;;;;;25.46;37.56;93079.28;4921061;29;7348;-64
2023/02/25 03:20:33;;;;;;;;;;;;;;;25.50;37.88;93076.91;4910785;29;7068;-64
2023/02/25 03:23:07;;;;;;;;;;;;;;;25.49;37.90;93087.19;4993992;28;9531;-64
2023/02/25 03:26:15;;;;;;;;;;;;;;;25.49;36.97;93086.47;4997110;28;8074;-64
2023/02/25 03:29:05;;;;;;;;;;;;;;;25.49;37.29;93089.22;4977974;28;9111;-64
2023/02/25 03:32:09;;;;;;;;;;;;;;;25.49;37.86;93091.97;4984824;28;7060;-64
2023/02/25 03:34:45;;;;;;;;;;;;;;;25.49;37.57;93100.25;4988768;28;7281;-65
2023/02/25 03:37:33;;;;;;;;;;;;;;;25.46;37.11;93101.31;4978383;28;7213;-64
2023/02/25 03:40:10;;;;;;;;;;;;;;;25.45;37.42;93100.56;4990033;28;8958;-64
2023/02/25 03:43:06;;;;;;;;;;;;;;;25.44;37.76;93090.84;4977457;28;7099;-65
2023/02/25 03:45:44;;;;;;;;;;;;;;;25.45;37.57;93102.59;4987308;28;7307;-64
2023/02/25 03:48:15;;;;;;;;;;;;;;;25.44;37.21;93093.59;4976749;28;7523;-65
2023/02/25 03:51:09;;;;;;;;;;;;;;;25.44;37.24;93110.13;4984911;28;7214;-65
2023/02/25 03:53:45;;;;;;;;;;;;;;;25.43;37.95;93116.88;4973801;28;8736;-64
2023/02/25 03:56:28;;;;;;;;;;;;;;;25.42;37.93;93121.66;4957775;28;8235;-64
2023/02/25 03:59:16;;;;;;;;;;;;;;;25.42;37.42;93131.94;4973700;28;7030;-64
2023/02/25 04:01:55;;;;;;;;;;;;;;;25.42;37.98;93129.91;4957712;28;7036;-64
2023/02/25 04:04:41;;;;;;;;;;;;;;;25.42;37.14;93131.94;4973918;28;8990;-64
2023/02/25 04:08:03;;;;;;;;;;;;;;;25.43;37.12;93147.16;5022739;28;7123;-65
2023/02/25 04:10:57;;;;;;;;;;;;;;;25.41;37.42;93144.94;5032596;28;7634;-65
2023/02/25 04:13:38;;;;;;;;;;;;;;;25.41;37.19;93149.69;5023978;28;7262;-64
2023/02/25 04:16:53;;;;;;;;;;;;;;;25.42;37.13;93151.94;5016807;28;8257;-65
2023/02/25 04:19:38;;;;;;;;;;;;;;;25.41;37.36;93166.97;4965243;28;9095;-64
2023/02/25 04:22:24;;;;;;;;;;;;;;;25.39;37.27;93166.75;4954501;28;9296;-65
2023/02/25 04:25:00;;;;;;;;;;;;;;;25.40;37.27;93165.47;4970433;28;7037;-64
2023/02/25 04:28:00;;;;;;;;;;;;;;;25.42;38.16;93176.00;4947047;28;8856;-65
2023/02/25 04:30:35;;;;;;;;;;;;;;;25.41;37.24;93168.97;4968461;28;9015;-65
2023/02/25 04:33:52;;;;;;;;;;;;;;;25.41;37.56;93174.47;4991762;28;9046;-64
2023/02/25 04:37:08;;;;;;;;;;;;;;;25.42;38.14;93160.19;4948043;28;9092;-64
2023/02/25 04:40:18;;;;;;;;;;;;;;;25.43;37.02;93160.94;4951459;28;9101;-64
2023/02/25 04:42:57;;;;;;;;;;;;;;;25.42;37.50;93167.72;4912545;29;7747;-65
2023/02/25 04:45:33;;;;;;;;;;;;;;;25.41;38.12;93166.22;4915605;29;7117;-64
2023/02/25 04:47:59;;;;;;;;;;;;;;;25.42;38.09;93170.47;4912930;29;8706;-64
2023/02/25 04:50:29;;;;;;;;;;;;;;;25.41;37.86;93166.97;4912226;29;7024;-64
2023/02/25 04:53:00;;;;;;;;;;;;;;;25.41;37.32;93163.47;4911937;29;9093;-64
2023/02/25 04:55:27;;;;;;;;;;;;;;;25.40;37.86;93170.25;4914903;29;9926;-64
2023/02/25 04:57:59;;;;;;;;;;;;;;;25.43;37.85;93164.44;4931474;29;9322;-64
2023/02/25 05:00:28;;;;;;;;;;;;;;;25.40;37.64;93154.44;4927485;29;7300;-64
2023/02/25 05:02:55;;;;;;;;;;;;;;;25.39;37.62;93166.00;4928586;29;9290;-64
2023/02/25 05:05:28;;;;;;;;;;;;;;;25.41;37.88;93163.47;4927482;29;9426;-65
2023/02/25 05:07:56;;;;;;;;;;;;;;;25.38;37.85;93151.50;4930609;29;7224;-64
2023/02/25 05:10:22;;;;;;;;;;;;;;;25.42;37.18;93153.97;4914318;29;9379;-64
2023/02/25 05:13:03;;;;;;;;;;;;;;;25.39;37.58;93152.25;4981788;28;9381;-65
2023/02/25 05:15:39;;;;;;;;;;;;;;;25.39;37.63;93149.50;4975319;28;7271;-65
2023/02/25 05:18:36;;;;;;;;;;;;;;;25.39;37.14;93147.50;5089156;28;7210;-64
2023/02/25 05:21:02;;;;;;;;;;;;;;;25.40;38.26;93148.22;4995517;28;9032;-65
2023/02/25 05:23:38;;;;;;;;;;;;;;;25.41;37.82;93146.94;5008304;28;7007;-64
2023/02/25 05:26:05;;;;;;;;;;;;;;;25.40;37.86;93148.22;5024710;28;7008;-64
2023/02/25 05:28:31;;;;;;;;;;;;;;;25.40;37.77;93151.00;5001999;28;9365;-64
2023/02/25 05:31:04;;;;;;;;;;;;;;;25.40;38.21;93159.25;5028127;28;9102;-64
2023/02/25 05:33:32;;;;;;;;;;;;;;;25.41;37.42;93153.19;5043930;28;8200;-64
2023/02/25 05:35:59;;;;;;;;;;;;;;;25.37;37.85;93149.31;5007922;28;9056;-64
2023/02/25 05:38:27;;;;;;;;;;;;;;;25.38;37.34;93146.00;5024607;28;9203;-64
2023/02/25 05:40:53;;;;;;;;;;;;;;;25.38;37.85;93145.28;5027280;28;7518;-64
2023/02/25 05:43:19;;;;;;;;;;;;;;;25.38;38.13;93140.50;5007571;28;7664;-64
2023/02/25 05:45:58;;;;;;;;;;;;;;;25.38;37.64;93145.28;5025192;28;7055;-65
2023/02/25 05:48:53;;;;;;;;;;;;;;;25.39;38.26;93149.50;5028012;28;8732;-64
2023/02/25 05:51:22;;;;;;;;;;;;;;;25.38;37.78;93161.81;4959597;28;7253;-64
2023/02/25 05:54:25;;;;;;;;;;;;;;;25.37;38.17;93147.28;4976330;28;9073;-64
2023/02/25 05:57:12;;;;;;;;;;;;;;;25.39;37.17;93161.25;4909690;29;8969;-64
2023/02/25 05:59:38;;;;;;;;;;;;;;;25.39;37.80;93160.50;4937544;29;7253;-64
2023/02/25 06:02:32;;;;;;;;;;;;;;;25.38;37.90;93161.81;4917312;29;7243;-65
2023/02/25 06:05:07;;;;;;;;;;;;;;;25.38;38.01;93159.75;4920784;29;7246;-65
2023/02/25 06:07:33;;;;;;;;;;;;;;;25.38;37.48;93162.50;4927804;29;9064;-65
2023/02/25 06:10:11;;;;;;;;;;;;;;;25.38;37.77;93162.50;4933602;29;9377;-65
2023/02/25 06:12:37;;;;;;;;;;;;;;;25.36;38.20;93156.81;4930145;29;6984;-65
2023/02/25 06:15:44;;;;;;;;;;;;;;;25.38;37.22;93161.81;4937269;29;7267;-64
2023/02/25 06:19:07;;;;;;;;;;;;;;;25.39;37.65;93160.50;4934438;29;7042;-64
2023/02/25 06:21:36;;;;;;;;;;;;;;;25.36;38.23;93173.31;4934646;29;9144;-64
2023/02/25 06:24:03;;;;;;;;;;;;;;;25.37;38.26;93168.56;4933699;29;8720;-64
2023/02/25 06:26:29;;;;;;;;;;;;;;;25.38;38.06;93175.56;4933919;28;9121;-64
2023/02/25 06:28:59;;;;;;;;;;;;;;;25.34;38.04;93173.13;4967705;28;7065;-64
2023/02/25 06:31:28;;;;;;;;;;;;;;;25.38;38.29;93175.56;4999617;28;8226;-64
2023/02/25 06:33:54;;;;;;;;;;;;;;;25.38;37.74;93178.31;5031111;28;7344;-64
2023/02/25 06:36:20;;;;;;;;;;;;;;;25.38;37.45;93183.81;5027750;28;8622;-64
2023/02/25 06:38:48;;;;;;;;;;;;;;;25.37;37.88;93185.09;4999814;28;8696;-64
2023/02/25 06:41:48;;;;;;;;;;;;;;;25.38;37.73;93189.31;5024172;28;7029;-64
2023/02/25 06:44:14;;;;;;;;;;;;;;;25.38;37.29;93183.81;4981394;28;8258;-64
2023/02/25 06:47:17;;;;;;;;;;;;;;;25.37;37.58;93183.06;4983944;28;9327;-65
2023/02/25 06:49:52;;;;;;;;;;;;;;;25.37;37.92;93187.84;4955837;28;7835;-64
2023/02/25 06:53:12;;;;;;;;;;;;;;;25.38;38.20;93192.06;4964415;28;8761;-64
2023/02/25 06:55:47;;;;;;;;;;;;;;;25.35;37.10;93185.63;4945984;28;9108;-65
2023/02/25 06:58:24;;;;;;;;;;;;;;;25.36;38.34;93189.09;4971725;28;9092;-64
2023/02/25 07:01:15;;;;;;;;;;;;;;;25.37;37.33;93193.34;4961345;28;9381;-64
2023/02/25 07:04:16;;;;;;;;;;;;;;;25.37;37.70;93193.34;4954419;28;8073;-65
2023/02/25 07:07:07;;;;;;;;;;;;;;;25.38;38.01;93192.06;4966755;28;7106;-64
2023/02/25 07:09:33;;;;;;;;;;;;;;;25.38;37.92;93200.34;4964184;28;7046;-64
2023/02/25 07:11:59;;;;;;;;;;;;;;;25.38;38.38;93203.09;4963945;28;7221;-64
2023/02/25 07:14:25;;;;;;;;;;;;;;;25.37;37.56;93204.34;4952232;28;8738;-65
2023/02/25 07:16:52;;;;;;;;;;;;;;;25.38;37.84;93206.56;4956567;28;9124;-64
2023/02/25 07:19:18;;;;;;;;;;;;;;;25.37;37.69;93199.59;4956899;28;7080;-63
2023/02/25 07:21:45;;;;;;;;;;;;;;;25.36;37.56;93202.84;4964271;28;8744;-64
2023/02/25 07:24:13;;;;;;;;;;;;;;;25.37;37.94;93199.59;5012871;28;9143;-64
2023/02/25 07:26:39;;;;;;;;;;;;;;;25.39;37.68;93207.31;5030014;28;7312;-64
2023/02/25 07:29:05;;;;;;;;;;;;;;;25.35;37.97;93188.38;5029780;28;7628;-64
2023/02/25 07:31:34;;;;;;;;;;;;;;;25.37;37.92;93196.09;5046360;28;7278;-64
2023/02/25 07:34:03;;;;;;;;;;;;;;;25.37;38.01;93183.06;5032193;28;7367;-64
2023/02/25 07:36:31;;;;;;;;;;;;;;;25.35;37.75;93180.13;5045936;28;8876;-64
2023/02/25 07:39:03;;;;;;;;;;;;;;;25.37;37.79;93187.84;5032408;28;7032;-64
2023/02/25 07:41:32;;;;;;;;;;;;;;;25.32;37.89;93181.19;5039483;28;7279;-64
2023/02/25 07:44:01;;;;;;;;;;;;;;;25.35;37.33;93187.63;5058104;28;9051;-64
2023/02/25 07:46:28;;;;;;;;;;;;;;;25.38;37.62;93192.78;5081963;28;7057;-63
2023/02/25 07:48:54;;;;;;;;;;;;;;;25.38;38.29;93194.81;5087333;28;8999;-64
2023/02/25 07:51:22;;;;;;;;;;;;;;;25.35;37.89;93193.88;5081840;28;8983;-64
2023/02/25 07:53:50;;;;;;;;;;;;;;;25.37;38.13;93185.81;5057312;28;7049;-64
2023/02/25 07:56:19;;;;;;;;;;;;;;;25.39;37.57;93196.28;5073155;28;9211;-64
2023/02/25 07:58:46;;;;;;;;;;;;;;;25.39;38.23;93201.78;5090264;28;8637;-65
2023/02/25 08:01:30;;;;;;;;;;;;;;;25.38;37.96;93194.81;5065421;28;7721;-65
2023/02/25 08:04:01;;;;;;;;;;;;;;;25.38;37.89;93197.59;5072995;28;9122;-64
2023/02/25 08:06:30;;;;;;;;;;;;;;;25.39;37.89;93196.28;5086306;28;6974;-65
2023/02/25 08:08:56;;;;;;;;;;;;;;;25.37;38.09;93196.84;5072580;28;9046;-64
2023/02/25 08:11:26;;;;;;;;;;;;;;;25.39;37.78;93194.28;5072709;28;9126;-64
2023/02/25 08:13:52;;;;;;;;;;;;;;;25.39;37.28;93188.03;5072424;28;7251;-64
2023/02/25 08:16:20;;;;;;;;;;;;;;;25.38;37.66;93183.81;5064584;28;9073;-64
2023/02/25 08:18:51;;;;;;;;;;;;;;;25.38;37.71;93192.78;5072644;28;8793;-64
2023/02/25 08:21:22;;;;;;;;;;;;;;;25.37;38.02;93182.34;5073521;28;8951;-65
2023/02/25 08:23:50;;;;;;;;;;;;;;;25.38;37.82;93175.56;5062783;28;7419;-64
2023/02/25 08:26:26;;;;;;;;;;;;;;;25.38;37.75;93178.31;5073674;28;9015;-64
2023/02/25 08:29:03;;;;;;;;;;;;;;;25.36;38.01;93173.31;5073230;28;9123;-64
2023/02/25 08:31:30;;;;;;;;;;;;;;;25.37;38.32;93168.56;5089639;28;8981;-64
2023/02/25 08:33:58;;;;;;;;;;;;;;;25.36;38.36;93173.31;5072954;28;7354;-64
2023/02/25 08:36:30;;;;;;;;;;;;;;;25.35;38.06;93171.13;5080002;28;8993;-64
2023/02/25 08:39:00;;;;;;;;;;;;;;;25.37;38.06;93171.31;5087426;28;7064;-64
2023/02/25 08:41:28;;;;;;;;;;;;;;;25.36;37.56;93165.06;5081051;28;7090;-64
2023/02/25 08:43:58;;;;;;;;;;;;;;;25.36;37.68;93161.56;5076559;28;9063;-64
2023/02/25 08:46:28;;;;;;;;;;;;;;;25.38;38.13;93167.31;5085087;28;9034;-64
2023/02/25 08:48:55;;;;;;;;;;;;;;;25.39;37.64;93160.50;5072255;28;9455;-65
2023/02/25 08:51:32;;;;;;;;;;;;;;;25.37;37.43;93158.31;5079753;28;7477;-64
2023/02/25 08:54:05;;;;;;;;;;;;;;;25.36;38.38;93165.06;5068319;28;7168;-64
2023/02/25 08:56:33;;;;;;;;;;;;;;;25.37;37.73;93168.56;5063910;28;7579;-64
2023/02/25 08:59:03;;;;;;;;;;;;;;;25.34;38.01;93166.88;5078870;28;8908;-64
2023/02/25 09:01:43;;;;;;;;;;;;;;;25.35;38.05;93165.63;5074414;28;7521;-64
2023/02/25 09:04:17;;;;;;;;;;;;;;;25.35;37.96;93160.84;5071152;28;7261;-64
2023/02/25 09:07:21;;;;;;;;;;;;;;;25.34;38.45;93164.88;5074944;28;9061;-65
2023/02/25 09:09:47;;;;;;;;;;;;;;;25.36;37.42;93159.56;4986254;28;7207;-64
2023/02/25 09:12:13;;;;;;;;;;;;;;;25.33;38.20;93163.41;4967598;28;8362;-64
2023/02/25 09:14:39;;;;;;;;;;;;;;;25.31;38.22;93151.47;4971939;28;7003;-64
2023/02/25 09:17:06;;;;;;;;;;;;;;;25.35;37.75;93151.84;4988399;28;8963;-64
2023/02/25 09:19:44;;;;;;;;;;;;;;;25.36;37.55;93147.81;4991065;28;7098;-64
2023/02/25 09:22:18;;;;;;;;;;;;;;;25.35;38.34;93146.34;4975666;28;8684;-64
2023/02/25 09:25:05;;;;;;;;;;;;;;;25.31;38.17;93132.94;4965114;28;9373;-65
2023/02/25 09:27:38;;;;;;;;;;;;;;;25.33;38.47;93127.63;4965631;28;9426;-65
2023/02/25 09:30:13;;;;;;;;;;;;;;;25.34;37.96;93144.88;4974786;28;7276;-64
2023/02/25 09:33:09;;;;;;;;;;;;;;;25.32;37.65;93139.91;4975529;28;7180;-64
2023/02/25 09:35:39;;;;;;;;;;;;;;;25.34;38.42;93142.84;4900995;29;7513;-64
2023/02/25 09:38:06;;;;;;;;;;;;;;;25.35;37.40;93151.84;4914500;29;9144;-64
2023/02/25 09:40:32;;;;;;;;;;;;;;;25.31;38.31;93145.97;4930005;29;7209;-64
2023/02/25 09:43:02;;;;;;;;;;;;;;;25.34;38.47;93144.88;4924274;28;9233;-65
2023/02/25 09:45:33;;;;;;;;;;;;;;;25.34;38.08;93144.88;4983419;28;9100;-65
2023/02/25 09:48:13;;;;;;;;;;;;;;;25.33;37.83;93155.16;4983738;28;8800;-64
2023/02/25 09:50:50;;;;;;;;;;;;;;;25.35;37.97;93151.84;4983014;28;7022;-65
2023/02/25 09:53:26;;;;;;;;;;;;;;;25.35;38.12;93157.38;4974312;28;7713;-64
2023/02/25 09:56:24;;;;;;;;;;;;;;;25.35;38.07;93154.59;4973746;28;6996;-64
2023/02/25 09:59:01;;;;;;;;;;;;;;;25.34;37.32;93147.63;4985023;28;7018;-65
2023/02/25 10:02:06;;;;;;;;;;;;;;;25.35;37.12;93140.84;4989469;28;8942;-64
2023/02/25 10:05:07;;;;;;;;;;;;;;;25.35;37.72;93146.34;4971749;28;8971;-65
2023/02/25 10:08:12;;;;;;;;;;;;;;;25.34;36.46;93156.63;4929973;29;7027;-64
2023/02/25 10:11:05;;;;;;;;;;;;;;;25.33;37.03;93148.91;4924742;29;7103;-65
2023/02/25 10:16:58;;;;;;;;;;;;;;;25.33;36.48;93143.41;4960966;28;7248;-66
2023/02/25 10:20:03;;;;;;;;;;;;;;;25.34;36.89;93139.34;4966499;28;7289;-63
2023/02/25 10:23:24;;;;;;;;;;;;;;;25.34;36.13;93145.59;4956397;28;9010;-64
2023/02/25 10:26:42;;;;;;;;;;;;;;;25.35;36.08;93140.84;4901892;29;7270;-63
2023/02/25 10:29:22;;;;;;;;;;;;;;;25.36;36.54;93142.31;4857656;29;8985;-64
2023/02/25 10:32:36;;;;;;;;;;;;;;;25.37;36.99;93139.03;4853872;29;7262;-64
2023/02/25 10:35:31;;;;;;;;;;;;;;;25.38;36.35;93145.28;4850490;29;7468;-64
2023/02/25 10:38:09;;;;;;;;;;;;;;;25.35;36.61;93149.09;4845439;29;9293;-64
2023/02/25 10:40:56;;;;;;;;;;;;;;;25.33;36.22;93140.66;4861110;29;9144;-65
2023/02/25 10:43:33;;;;;;;;;;;;;;;25.35;36.13;93143.59;4858820;29;7484;-64
2023/02/25 10:46:14;;;;;;;;;;;;;;;25.34;36.63;93144.88;4892065;29;7200;-64
2023/02/25 10:49:13;;;;;;;;;;;;;;;25.32;36.14;93141.91;4880621;29;8727;-65
2023/02/25 10:52:04;;;;;;;;;;;;;;;25.34;36.36;93140.09;4894783;29;7214;-65
2023/02/25 10:54:50;;;;;;;;;;;;;;;25.32;36.32;93137.16;4873364;29;8621;-64
2023/02/25 10:57:43;;;;;;;;;;;;;;;25.30;35.94;93138.97;4891754;29;7279;-64
2023/02/25 11:00:33;;;;;;;;;;;;;;;25.31;36.40;93129.44;4839982;29;7216;-64
2023/02/25 11:03:00;;;;;;;;;;;;;;;25.28;35.86;93130.50;4876918;29;7027;-64
2023/02/25 11:05:42;;;;;;;;;;;;;;;25.31;36.48;93126.69;4929979;28;7257;-64
2023/02/25 11:08:33;;;;;;;;;;;;;;;25.30;35.80;93133.47;4950682;28;7325;-64
2023/02/25 11:11:21;;;;;;;;;;;;;;;25.32;36.44;93125.41;4932055;28;8736;-65
2023/02/25 11:14:14;;;;;;;;;;;;;;;25.26;36.10;93133.06;4938260;28;7325;-64
2023/02/25 11:16:44;;;;;;;;;;;;;;;25.21;36.47;93133.94;4945987;28;9051;-64
2023/02/25 11:19:30;;;;;;;;;;;;;;;25.25;36.51;93126.09;4951819;28;9366;-64
2023/02/25 11:22:10;;;;;;;;;;;;;;;25.26;36.46;93127.56;4954369;28;9229;-65
2023/02/25 11:24:45;;;;;;;;;;;;;;;25.25;36.30;93113.06;4955206;28;7425;-64
2023/02/25 11:27:37;;;;;;;;;;;;;;;25.29;37.29;93121.00;4932608;28;6963;-65
2023/02/25 11:30:36;;;;;;;;;;;;;;;25.30;36.64;93116.94;4959748;28;7230;-65
2023/02/25 11:33:20;;;;;;;;;;;;;;;25.31;36.82;93112.94;4927537;29;9132;-65
2023/02/25 11:35:55;;;;;;;;;;;;;;;25.31;37.19;93113.69;4915157;29;6869;-65
2023/02/25 11:38:27;;;;;;;;;;;;;;;25.31;36.59;93115.69;4994858;28;7336;-64
2023/02/25 11:40:55;;;;;;;;;;;;;;;25.31;37.06;93104.69;4988209;28;9483;-65
2023/02/25 11:43:26;;;;;;;;;;;;;;;25.31;36.73;93104.69;5007145;28;7921;-65
2023/02/25 11:45:54;;;;;;;;;;;;;;;25.30;37.75;93092.19;5006229;28;7269;-64
2023/02/25 11:48:53;;;;;;;;;;;;;;;25.32;36.90;93097.88;4995210;28;7676;-65
2023/02/25 11:51:35;;;;;;;;;;;;;;;25.32;37.52;93086.88;4982190;28;7632;-64
2023/02/25 11:54:07;;;;;;;;;;;;;;;25.30;37.11;93092.19;4992701;28;7119;-64
2023/02/25 11:56:42;;;;;;;;;;;;;;;25.32;37.09;93089.63;4984034;28;7019;-65
2023/02/25 11:59:58;;;;;;;;;;;;;;;25.34;37.91;93084.31;4982227;28;7051;-65
2023/02/25 12:02:30;;;;;;;;;;;;;;;25.32;37.03;93098.63;4934641;28;8976;-65
2023/02/25 12:05:21;;;;;;;;;;;;;;;25.34;37.53;93089.81;4930022;28;9040;-64
2023/02/25 12:08:42;;;;;;;;;;;;;;;25.37;37.83;93083.25;4932504;29;8978;-65
2023/02/25 12:11:52;;;;;;;;;;;;;;;25.37;36.98;93080.50;4966396;28;7653;-64
2023/02/25 12:15:00;;;;;;;;;;;;;;;25.36;37.08;93079.00;4956494;28;7385;-65
2023/02/25 12:17:59;;;;;;;;;;;;;;;25.37;37.29;93074.97;4968826;28;7846;-64
2023/02/25 12:20:37;;;;;;;;;;;;;;;25.36;37.85;93068.75;4952269;28;7219;-65
2023/02/25 12:23:53;;;;;;;;;;;;;;;25.38;37.65;93065.47;4951986;28;9024;-64
2023/02/25 12:26:37;;;;;;;;;;;;;;;25.39;37.12;93055.91;4924354;29;7210;-64
2023/02/25 12:29:31;;;;;;;;;;;;;;;25.39;37.45;93067.66;4909091;29;9378;-62
2023/02/25 12:32:38;;;;;;;;;;;;;;;25.40;37.28;93062.91;4912853;28;9429;-62
2023/02/25 12:35:14;;;;;;;;;;;;;;;25.40;37.00;93054.66;4962451;28;7062;-63
2023/02/25 12:38:17;;;;;;;;;;;;;;;25.41;36.98;93061.59;4962461;28;9037;-62
2023/02/25 12:41:14;;;;;;;;;;;;;;;25.37;37.63;93064.72;4944664;28;9480;-62
2023/02/25 12:44:00;;;;;;;;;;;;;;;25.38;37.82;93062.72;4947747;28;7266;-63
2023/02/25 12:46:52;;;;;;;;;;;;;;;25.37;37.96;93067.47;4981955;28;8680;-61
2023/02/25 12:50:04;;;;;;;;;;;;;;;25.42;37.34;93068.63;4992328;28;7295;-62
2023/02/25 12:53:05;;;;;;;;;;;;;;;25.40;37.68;93077.38;5000706;28;7214;-63
2023/02/25 12:56:08;;;;;;;;;;;;;;;25.40;37.52;93082.16;5003694;28;8355;-64
2023/02/25 12:58:54;;;;;;;;;;;;;;;25.41;37.46;93080.88;5008401;28;9027;-63
2023/02/25 13:01:37;;;;;;;;;;;;;;;25.39;37.79;93081.44;5019376;28;9356;-64
2023/02/25 13:04:30;;;;;;;;;;;;;;;25.41;37.60;93081.63;5086341;28;9082;-64
2023/02/25 13:07:34;;;;;;;;;;;;;;;25.40;37.56;93084.94;5071503;28;9412;-64
2023/02/25 13:10:53;;;;;;;;;;;;;;;25.40;37.86;93084.94;5074762;28;9410;-65
2023/02/25 13:13:50;;;;;;;;;;;;;;;25.41;37.86;93089.13;5074100;28;7260;-64
2023/02/25 13:16:41;;;;;;;;;;;;;;;25.41;38.38;93089.13;5051988;28;7229;-64
2023/02/25 13:19:44;;;;;;;;;;;;;;;25.41;38.43;93100.16;5059886;28;7272;-65
2023/02/25 13:22:48;;;;;;;;;;;;;;;25.42;38.70;93096.16;5082476;28;9159;-63
2023/02/25 13:25:37;;;;;;;;;;;;;;;25.43;38.79;93095.59;5062663;28;7640;-64
2023/02/25 13:28:30;;;;;;;;;;;;;;;25.40;37.95;93093.19;5071984;28;8992;-63
2023/02/25 13:31:40;;;;;;;;;;;;;;;25.40;38.97;93093.19;5072074;28;7187;-63
2023/02/25 13:34:18;;;;;;;;;;;;;;;25.40;38.26;93087.69;5082546;28;8679;-63
2023/02/25 13:37:15;;;;;;;;;;;;;;;25.43;38.46;93086.59;5088264;28;9238;-63
2023/02/25 13:40:26;;;;;;;;;;;;;;;25.43;38.17;93094.88;5086333;28;9760;-64
2023/02/25 13:46:59;;;;;;;;;;;;;;;25.43;38.98;93103.13;5010918;28;7484;-63
2023/02/25 13:49:52;;;;;;;;;;;;;;;25.43;38.66;93106.63;4986826;28;7094;-64
2023/02/25 13:53:01;;;;;;;;;;;;;;;25.44;39.13;93099.09;4991309;28;9333;-63
2023/02/25 13:55:52;;;;;;;;;;;;;;;25.43;38.93;93111.38;4990643;28;9023;-64
2023/02/25 13:59:01;;;;;;;;;;;;;;;25.46;38.78;93113.06;4991127;28;7138;-64
2023/02/25 14:02:03;;;;;;;;;;;;;;;25.46;38.24;93117.81;4982359;28;9055;-63
2023/02/25 14:05:21;;;;;;;;;;;;;;;25.46;38.93;93124.06;4933127;29;9131;-63
2023/02/25 14:08:04;;;;;;;;;;;;;;;25.47;38.29;93125.53;4933249;29;9137;-63
2023/02/25 14:11:13;;;;;;;;;;;;;;;25.48;38.98;93134.53;4934205;29;9180;-63
2023/02/25 14:14:06;;;;;;;;;;;;;;;25.47;38.23;93135.84;4937127;29;7229;-63
2023/02/25 14:16:43;;;;;;;;;;;;;;;25.47;39.27;93127.56;4933374;29;9097;-64
2023/02/25 14:23:14;;;;;;;;;;;;;;;25.46;38.47;93148.09;4910289;29;9183;-65
2023/02/25 14:25:58;;;;;;;;;;;;;;;25.45;38.71;93154.91;4920243;29;8261;-64
2023/02/25 14:29:10;;;;;;;;;;;;;;;25.43;38.90;93164.44;4900972;29;7032;-64
2023/02/25 14:35:37;;;;;;;;;;;;;;;25.43;39.06;93147.16;4917119;29;8258;-63